sensor_id;sensor_type;location;lat;lon;timestamp;temperature;humidity
360;DHT22;168;48.872;9.226;2023-07-22T00:01:56;16.30;94.30
360;DHT22;168;48.872;9.226;2023-07-22T00:04:23;16.30;94.40
360;DHT22;168;48.872;9.226;2023-07-22T00:06:52;16.40;94.40
360;DHT22;168;48.872;9.226;2023-07-22T00:09:19;16.40;94.30
360;DHT22;168;48.872;9.226;2023-07-22T00:11:49;16.30;94.30
360;DHT22;168;48.872;9.226;2023-07-22T00:14:16;16.30;94.40
360;DHT22;168;48.872;9.226;2023-07-22T00:16:44;16.30;94.40
360;DHT22;168;48.872;9.226;2023-07-22T00:19:11;16.30;94.40
360;DHT22;168;48.872;9.226;2023-07-22T00:21:40;16.30;94.40
360;DHT22;168;48.872;9.226;2023-07-22T00:24:08;16.20;94.40
360;DHT22;168;48.872;9.226;2023-07-22T00:26:36;16.20;94.50
360;DHT22;168;48.872;9.226;2023-07-22T00:29:04;16.20;94.40
360;DHT22;168;48.872;9.226;2023-07-22T00:31:32;16.20;94.40
360;DHT22;168;48.872;9.226;2023-07-22T00:33:59;16.10;94.40
360;DHT22;168;48.872;9.226;2023-07-22T00:36:26;16.10;94.40
360;DHT22;168;48.872;9.226;2023-07-22T00:38:55;16.00;94.40
360;DHT22;168;48.872;9.226;2023-07-22T00:41:23;15.90;94.50
360;DHT22;168;48.872;9.226;2023-07-22T00:43:51;16.00;94.40
360;DHT22;168;48.872;9.226;2023-07-22T00:46:18;16.00;94.50
360;DHT22;168;48.872;9.226;2023-07-22T00:48:46;16.00;94.40
360;DHT22;168;48.872;9.226;2023-07-22T00:51:14;16.00;94.50
360;DHT22;168;48.872;9.226;2023-07-22T00:53:41;16.00;94.40
360;DHT22;168;48.872;9.226;2023-07-22T00:56:09;16.00;94.40
360;DHT22;168;48.872;9.226;2023-07-22T00:58:38;15.90;94.50
360;DHT22;168;48.872;9.226;2023-07-22T01:01:05;15.90;94.50
360;DHT22;168;48.872;9.226;2023-07-22T01:03:33;15.90;94.50
360;DHT22;168;48.872;9.226;2023-07-22T01:06:01;15.90;94.50
360;DHT22;168;48.872;9.226;2023-07-22T01:08:29;15.90;94.50
360;DHT22;168;48.872;9.226;2023-07-22T01:10:56;15.90;94.50
360;DHT22;168;48.872;9.226;2023-07-22T01:13:25;15.80;94.50
360;DHT22;168;48.872;9.226;2023-07-22T01:15:53;15.80;94.40
360;DHT22;168;48.872;9.226;2023-07-22T01:18:21;15.80;94.40
360;DHT22;168;48.872;9.226;2023-07-22T01:20:48;15.80;94.30
360;DHT22;168;48.872;9.226;2023-07-22T01:23:17;15.80;94.00
360;DHT22;168;48.872;9.226;2023-07-22T01:25:45;15.80;94.00
360;DHT22;168;48.872;9.226;2023-07-22T01:28:13;15.70;93.90
360;DHT22;168;48.872;9.226;2023-07-22T01:30:40;15.70;93.80
360;DHT22;168;48.872;9.226;2023-07-22T01:33:07;15.60;93.70
360;DHT22;168;48.872;9.226;2023-07-22T01:35:35;15.60;93.60
360;DHT22;168;48.872;9.226;2023-07-22T01:38:02;15.60;93.60
360;DHT22;168;48.872;9.226;2023-07-22T01:40:31;15.60;93.60
360;DHT22;168;48.872;9.226;2023-07-22T01:42:58;15.60;93.70
360;DHT22;168;48.872;9.226;2023-07-22T01:45:26;15.50;93.40
360;DHT22;168;48.872;9.226;2023-07-22T01:47:53;15.50;93.40
360;DHT22;168;48.872;9.226;2023-07-22T01:50:20;15.40;93.10
360;DHT22;168;48.872;9.226;2023-07-22T01:52:48;15.40;92.90
360;DHT22;168;48.872;9.226;2023-07-22T01:55:16;15.40;92.80
360;DHT22;168;48.872;9.226;2023-07-22T01:57:45;15.40;92.70
360;DHT22;168;48.872;9.226;2023-07-22T02:00:14;15.40;92.60
360;DHT22;168;48.872;9.226;2023-07-22T02:02:42;15.40;92.70
360;DHT22;168;48.872;9.226;2023-07-22T02:05:09;15.40;92.70
360;DHT22;168;48.872;9.226;2023-07-22T02:07:37;15.40;92.50
360;DHT22;168;48.872;9.226;2023-07-22T02:10:05;15.50;92.60
360;DHT22;168;48.872;9.226;2023-07-22T02:12:33;15.50;92.70
360;DHT22;168;48.872;9.226;2023-07-22T02:15:01;15.50;92.60
360;DHT22;168;48.872;9.226;2023-07-22T02:17:29;15.50;92.30
360;DHT22;168;48.872;9.226;2023-07-22T02:19:57;15.40;92.10
360;DHT22;168;48.872;9.226;2023-07-22T02:22:24;15.40;91.90
360;DHT22;168;48.872;9.226;2023-07-22T02:24:51;15.40;91.90
360;DHT22;168;48.872;9.226;2023-07-22T02:27:19;15.30;92.00
360;DHT22;168;48.872;9.226;2023-07-22T02:29:46;15.30;92.10
360;DHT22;168;48.872;9.226;2023-07-22T02:32:15;15.30;92.40
360;DHT22;168;48.872;9.226;2023-07-22T02:34:43;15.30;92.60
360;DHT22;168;48.872;9.226;2023-07-22T02:37:10;15.20;92.70
360;DHT22;168;48.872;9.226;2023-07-22T02:39:37;15.20;92.70
360;DHT22;168;48.872;9.226;2023-07-22T02:42:05;15.20;92.70
360;DHT22;168;48.872;9.226;2023-07-22T02:44:33;15.10;92.50
360;DHT22;168;48.872;9.226;2023-07-22T02:47:00;15.10;92.40
360;DHT22;168;48.872;9.226;2023-07-22T02:49:29;15.10;92.10
360;DHT22;168;48.872;9.226;2023-07-22T02:51:56;15.20;92.10
360;DHT22;168;48.872;9.226;2023-07-22T02:54:24;15.20;92.20
360;DHT22;168;48.872;9.226;2023-07-22T02:56:51;15.20;91.90
360;DHT22;168;48.872;9.226;2023-07-22T02:59:18;15.20;91.60
360;DHT22;168;48.872;9.226;2023-07-22T03:01:45;15.10;91.50
360;DHT22;168;48.872;9.226;2023-07-22T03:04:13;15.10;91.30
360;DHT22;168;48.872;9.226;2023-07-22T03:06:41;15.00;91.00
360;DHT22;168;48.872;9.226;2023-07-22T03:09:10;15.00;90.70
360;DHT22;168;48.872;9.226;2023-07-22T03:11:38;15.00;90.60
360;DHT22;168;48.872;9.226;2023-07-22T03:14:05;15.00;90.80
360;DHT22;168;48.872;9.226;2023-07-22T03:16:33;15.00;91.10
360;DHT22;168;48.872;9.226;2023-07-22T03:19:00;14.90;91.20
360;DHT22;168;48.872;9.226;2023-07-22T03:21:27;14.90;91.50
360;DHT22;168;48.872;9.226;2023-07-22T03:23:56;14.90;91.50
360;DHT22;168;48.872;9.226;2023-07-22T03:26:24;14.90;91.60
360;DHT22;168;48.872;9.226;2023-07-22T03:28:51;14.80;91.60
360;DHT22;168;48.872;9.226;2023-07-22T03:31:19;14.80;91.80
360;DHT22;168;48.872;9.226;2023-07-22T03:33:46;14.80;91.80
360;DHT22;168;48.872;9.226;2023-07-22T03:36:14;14.80;92.10
360;DHT22;168;48.872;9.226;2023-07-22T03:38:42;14.80;92.00
360;DHT22;168;48.872;9.226;2023-07-22T03:41:10;14.70;92.00
360;DHT22;168;48.872;9.226;2023-07-22T03:43:38;14.70;92.00
360;DHT22;168;48.872;9.226;2023-07-22T03:46:05;14.70;91.90
360;DHT22;168;48.872;9.226;2023-07-22T03:48:33;14.70;91.80
360;DHT22;168;48.872;9.226;2023-07-22T03:51:00;14.70;91.60
360;DHT22;168;48.872;9.226;2023-07-22T03:53:27;14.70;91.30
360;DHT22;168;48.872;9.226;2023-07-22T03:55:55;14.70;91.20
360;DHT22;168;48.872;9.226;2023-07-22T03:58:23;14.70;91.20
360;DHT22;168;48.872;9.226;2023-07-22T04:00:51;14.70;91.10
360;DHT22;168;48.872;9.226;2023-07-22T04:03:18;14.70;91.20
360;DHT22;168;48.872;9.226;2023-07-22T04:05:53;14.70;91.40
360;DHT22;168;48.872;9.226;2023-07-22T04:08:20;14.70;91.60
360;DHT22;168;48.872;9.226;2023-07-22T04:10:51;14.70;91.70
360;DHT22;168;48.872;9.226;2023-07-22T04:13:19;14.70;91.80
360;DHT22;168;48.872;9.226;2023-07-22T04:15:48;14.70;91.90
360;DHT22;168;48.872;9.226;2023-07-22T04:18:15;14.80;92.00
360;DHT22;168;48.872;9.226;2023-07-22T04:20:43;14.80;92.00
360;DHT22;168;48.872;9.226;2023-07-22T04:23:11;14.80;92.00
360;DHT22;168;48.872;9.226;2023-07-22T04:25:39;14.80;91.90
360;DHT22;168;48.872;9.226;2023-07-22T04:28:07;14.80;91.80
360;DHT22;168;48.872;9.226;2023-07-22T04:30:34;14.80;91.80
360;DHT22;168;48.872;9.226;2023-07-22T04:33:03;14.90;92.10
360;DHT22;168;48.872;9.226;2023-07-22T04:35:31;14.90;92.30
360;DHT22;168;48.872;9.226;2023-07-22T04:37:59;15.00;92.60
360;DHT22;168;48.872;9.226;2023-07-22T04:40:26;15.10;92.60
360;DHT22;168;48.872;9.226;2023-07-22T04:42:54;15.10;92.80
360;DHT22;168;48.872;9.226;2023-07-22T04:45:21;15.10;93.00
360;DHT22;168;48.872;9.226;2023-07-22T04:47:49;15.20;93.20
360;DHT22;168;48.872;9.226;2023-07-22T04:50:18;15.30;93.50
360;DHT22;168;48.872;9.226;2023-07-22T04:52:47;15.30;93.60
360;DHT22;168;48.872;9.226;2023-07-22T04:55:14;15.40;93.80
360;DHT22;168;48.872;9.226;2023-07-22T04:57:42;15.40;94.00
360;DHT22;168;48.872;9.226;2023-07-22T05:00:11;15.50;94.00
360;DHT22;168;48.872;9.226;2023-07-22T05:02:41;15.60;94.20
360;DHT22;168;48.872;9.226;2023-07-22T05:05:08;15.60;94.20
360;DHT22;168;48.872;9.226;2023-07-22T05:07:37;15.70;94.30
360;DHT22;168;48.872;9.226;2023-07-22T05:10:05;15.70;94.30
360;DHT22;168;48.872;9.226;2023-07-22T05:12:33;15.80;94.40
360;DHT22;168;48.872;9.226;2023-07-22T05:15:00;15.90;94.70
360;DHT22;168;48.872;9.226;2023-07-22T05:17:28;16.00;94.60
360;DHT22;168;48.872;9.226;2023-07-22T05:19:57;16.10;94.60
360;DHT22;168;48.872;9.226;2023-07-22T05:22:24;16.10;94.60
360;DHT22;168;48.872;9.226;2023-07-22T05:24:53;16.20;94.70
360;DHT22;168;48.872;9.226;2023-07-22T05:27:20;16.30;94.80
360;DHT22;168;48.872;9.226;2023-07-22T05:29:47;16.40;94.80
360;DHT22;168;48.872;9.226;2023-07-22T05:32:15;16.50;94.70
360;DHT22;168;48.872;9.226;2023-07-22T05:34:42;16.60;94.80
360;DHT22;168;48.872;9.226;2023-07-22T05:37:09;16.70;94.70
360;DHT22;168;48.872;9.226;2023-07-22T05:39:37;16.80;94.60
360;DHT22;168;48.872;9.226;2023-07-22T05:42:06;16.90;94.60
360;DHT22;168;48.872;9.226;2023-07-22T05:44:34;17.00;94.60
360;DHT22;168;48.872;9.226;2023-07-22T05:47:01;17.00;94.50
360;DHT22;168;48.872;9.226;2023-07-22T05:49:29;17.10;94.30
360;DHT22;168;48.872;9.226;2023-07-22T05:51:56;17.10;94.20
360;DHT22;168;48.872;9.226;2023-07-22T05:54:24;17.20;94.10
360;DHT22;168;48.872;9.226;2023-07-22T05:56:51;17.30;94.00
360;DHT22;168;48.872;9.226;2023-07-22T05:59:20;17.40;93.80
360;DHT22;168;48.872;9.226;2023-07-22T06:01:47;17.50;93.70
360;DHT22;168;48.872;9.226;2023-07-22T06:04:14;17.50;93.70
360;DHT22;168;48.872;9.226;2023-07-22T06:06:42;17.60;93.80
360;DHT22;168;48.872;9.226;2023-07-22T06:09:10;17.70;93.60
360;DHT22;168;48.872;9.226;2023-07-22T06:11:37;17.70;93.40
360;DHT22;168;48.872;9.226;2023-07-22T06:14:05;17.90;93.30
360;DHT22;168;48.872;9.226;2023-07-22T06:16:34;18.00;93.00
360;DHT22;168;48.872;9.226;2023-07-22T06:19:01;18.10;93.00
360;DHT22;168;48.872;9.226;2023-07-22T06:21:28;18.20;93.20
360;DHT22;168;48.872;9.226;2023-07-22T06:23:56;18.20;92.90
360;DHT22;168;48.872;9.226;2023-07-22T06:26:23;18.30;92.90
360;DHT22;168;48.872;9.226;2023-07-22T06:28:50;18.40;93.30
360;DHT22;168;48.872;9.226;2023-07-22T06:31:18;18.40;93.00
360;DHT22;168;48.872;9.226;2023-07-22T06:33:46;18.50;93.00
360;DHT22;168;48.872;9.226;2023-07-22T06:36:14;18.50;93.10
360;DHT22;168;48.872;9.226;2023-07-22T06:38:42;18.60;93.20
360;DHT22;168;48.872;9.226;2023-07-22T06:41:10;18.60;93.10
360;DHT22;168;48.872;9.226;2023-07-22T06:43:37;18.70;93.20
360;DHT22;168;48.872;9.226;2023-07-22T06:46:04;18.70;93.00
360;DHT22;168;48.872;9.226;2023-07-22T06:48:31;18.90;92.70
360;DHT22;168;48.872;9.226;2023-07-22T06:51:00;19.00;92.60
360;DHT22;168;48.872;9.226;2023-07-22T06:53:27;19.10;92.40
360;DHT22;168;48.872;9.226;2023-07-22T06:55:55;19.20;91.80
360;DHT22;168;48.872;9.226;2023-07-22T06:58:22;19.30;91.60
360;DHT22;168;48.872;9.226;2023-07-22T07:00:53;19.50;91.10
360;DHT22;168;48.872;9.226;2023-07-22T07:03:20;19.60;90.90
360;DHT22;168;48.872;9.226;2023-07-22T07:05:52;19.70;90.60
360;DHT22;168;48.872;9.226;2023-07-22T07:08:21;19.90;90.50
360;DHT22;168;48.872;9.226;2023-07-22T07:10:48;20.10;89.70
360;DHT22;168;48.872;9.226;2023-07-22T07:13:16;20.10;89.40
360;DHT22;168;48.872;9.226;2023-07-22T07:15:46;20.20;89.60
360;DHT22;168;48.872;9.226;2023-07-22T07:18:14;20.30;89.60
360;DHT22;168;48.872;9.226;2023-07-22T07:20:41;20.40;88.70
360;DHT22;168;48.872;9.226;2023-07-22T07:23:09;20.50;88.10
360;DHT22;168;48.872;9.226;2023-07-22T07:25:37;20.60;87.70
360;DHT22;168;48.872;9.226;2023-07-22T07:28:05;20.70;87.20
360;DHT22;168;48.872;9.226;2023-07-22T07:30:32;20.90;86.40
360;DHT22;168;48.872;9.226;2023-07-22T07:32:59;21.00;85.90
360;DHT22;168;48.872;9.226;2023-07-22T07:35:26;21.10;85.80
360;DHT22;168;48.872;9.226;2023-07-22T07:37:54;21.20;85.50
360;DHT22;168;48.872;9.226;2023-07-22T07:40:21;21.30;85.20
360;DHT22;168;48.872;9.226;2023-07-22T07:42:50;21.40;84.00
360;DHT22;168;48.872;9.226;2023-07-22T07:45:17;21.50;83.20
360;DHT22;168;48.872;9.226;2023-07-22T07:47:45;21.60;82.90
360;DHT22;168;48.872;9.226;2023-07-22T07:50:12;21.60;82.90
360;DHT22;168;48.872;9.226;2023-07-22T07:52:39;21.70;83.10
360;DHT22;168;48.872;9.226;2023-07-22T07:55:07;21.80;82.90
360;DHT22;168;48.872;9.226;2023-07-22T07:57:34;21.80;82.00
360;DHT22;168;48.872;9.226;2023-07-22T08:00:04;21.90;81.90
360;DHT22;168;48.872;9.226;2023-07-22T08:02:33;22.00;81.40
360;DHT22;168;48.872;9.226;2023-07-22T08:05:01;22.10;81.80
360;DHT22;168;48.872;9.226;2023-07-22T08:07:28;22.10;81.20
360;DHT22;168;48.872;9.226;2023-07-22T08:09:56;22.10;80.70
360;DHT22;168;48.872;9.226;2023-07-22T08:12:24;22.20;81.00
360;DHT22;168;48.872;9.226;2023-07-22T08:14:52;22.20;81.00
360;DHT22;168;48.872;9.226;2023-07-22T08:17:22;22.30;80.80
360;DHT22;168;48.872;9.226;2023-07-22T08:19:49;22.40;80.60
360;DHT22;168;48.872;9.226;2023-07-22T08:22:17;22.50;80.60
360;DHT22;168;48.872;9.226;2023-07-22T08:24:44;22.60;79.70
360;DHT22;168;48.872;9.226;2023-07-22T08:27:12;22.60;79.80
360;DHT22;168;48.872;9.226;2023-07-22T08:29:40;22.70;78.10
360;DHT22;168;48.872;9.226;2023-07-22T08:32:07;22.80;76.10
360;DHT22;168;48.872;9.226;2023-07-22T08:34:36;22.90;76.00
360;DHT22;168;48.872;9.226;2023-07-22T08:37:04;22.90;75.60
360;DHT22;168;48.872;9.226;2023-07-22T08:39:32;23.00;74.30
360;DHT22;168;48.872;9.226;2023-07-22T08:42:02;23.10;74.40
360;DHT22;168;48.872;9.226;2023-07-22T08:44:32;23.20;73.50
360;DHT22;168;48.872;9.226;2023-07-22T08:47:02;23.30;73.50
360;DHT22;168;48.872;9.226;2023-07-22T08:49:31;23.30;73.80
360;DHT22;168;48.872;9.226;2023-07-22T08:52:00;23.10;74.70
360;DHT22;168;48.872;9.226;2023-07-22T08:54:28;23.00;75.10
360;DHT22;168;48.872;9.226;2023-07-22T08:56:55;23.00;74.20
360;DHT22;168;48.872;9.226;2023-07-22T08:59:24;23.00;73.80
360;DHT22;168;48.872;9.226;2023-07-22T09:01:51;23.10;74.60
360;DHT22;168;48.872;9.226;2023-07-22T09:04:20;23.20;73.90
360;DHT22;168;48.872;9.226;2023-07-22T09:06:48;23.30;72.90
360;DHT22;168;48.872;9.226;2023-07-22T09:09:17;23.40;73.10
360;DHT22;168;48.872;9.226;2023-07-22T09:11:45;23.40;72.90
360;DHT22;168;48.872;9.226;2023-07-22T09:14:14;23.60;72.30
360;DHT22;168;48.872;9.226;2023-07-22T09:16:42;23.70;71.00
360;DHT22;168;48.872;9.226;2023-07-22T09:19:10;23.70;70.80
360;DHT22;168;48.872;9.226;2023-07-22T09:21:38;23.80;71.40
360;DHT22;168;48.872;9.226;2023-07-22T09:24:23;23.80;70.60
360;DHT22;168;48.872;9.226;2023-07-22T09:26:50;23.90;70.00
360;DHT22;168;48.872;9.226;2023-07-22T09:29:18;23.90;69.90
360;DHT22;168;48.872;9.226;2023-07-22T09:31:50;24.10;67.80
360;DHT22;168;48.872;9.226;2023-07-22T09:34:17;24.20;68.40
360;DHT22;168;48.872;9.226;2023-07-22T09:36:52;24.40;67.50
360;DHT22;168;48.872;9.226;2023-07-22T09:39:22;24.80;67.20
360;DHT22;168;48.872;9.226;2023-07-22T09:41:50;25.00;65.40
360;DHT22;168;48.872;9.226;2023-07-22T09:44:18;25.30;63.80
360;DHT22;168;48.872;9.226;2023-07-22T09:46:47;25.50;64.00
360;DHT22;168;48.872;9.226;2023-07-22T09:49:17;25.50;63.00
360;DHT22;168;48.872;9.226;2023-07-22T09:51:44;25.60;62.10
360;DHT22;168;48.872;9.226;2023-07-22T09:54:12;25.60;62.30
360;DHT22;168;48.872;9.226;2023-07-22T09:56:49;25.60;62.00
360;DHT22;168;48.872;9.226;2023-07-22T09:59:18;25.30;62.30
360;DHT22;168;48.872;9.226;2023-07-22T10:01:46;25.30;61.70
360;DHT22;168;48.872;9.226;2023-07-22T10:04:16;25.40;61.50
360;DHT22;168;48.872;9.226;2023-07-22T10:06:43;25.40;61.10
360;DHT22;168;48.872;9.226;2023-07-22T10:09:12;25.30;60.70
360;DHT22;168;48.872;9.226;2023-07-22T10:11:40;25.20;61.00
360;DHT22;168;48.872;9.226;2023-07-22T10:14:10;25.20;61.70
360;DHT22;168;48.872;9.226;2023-07-22T10:16:41;25.10;62.00
360;DHT22;168;48.872;9.226;2023-07-22T10:19:09;24.90;61.90
360;DHT22;168;48.872;9.226;2023-07-22T10:21:38;24.80;62.50
360;DHT22;168;48.872;9.226;2023-07-22T10:24:06;24.90;61.70
360;DHT22;168;48.872;9.226;2023-07-22T10:26:34;25.00;61.80
360;DHT22;168;48.872;9.226;2023-07-22T10:29:02;25.20;61.20
360;DHT22;168;48.872;9.226;2023-07-22T10:31:32;25.20;61.00
360;DHT22;168;48.872;9.226;2023-07-22T10:34:01;25.30;60.10
360;DHT22;168;48.872;9.226;2023-07-22T10:36:29;25.50;59.60
360;DHT22;168;48.872;9.226;2023-07-22T10:38:59;25.50;59.70
360;DHT22;168;48.872;9.226;2023-07-22T10:41:26;25.70;59.40
360;DHT22;168;48.872;9.226;2023-07-22T10:43:54;25.90;58.00
360;DHT22;168;48.872;9.226;2023-07-22T10:46:32;26.00;57.30
360;DHT22;168;48.872;9.226;2023-07-22T10:49:10;26.10;56.10
360;DHT22;168;48.872;9.226;2023-07-22T10:51:39;26.30;56.00
360;DHT22;168;48.872;9.226;2023-07-22T10:54:13;26.20;56.20
360;DHT22;168;48.872;9.226;2023-07-22T10:56:42;26.10;56.40
360;DHT22;168;48.872;9.226;2023-07-22T10:59:11;26.10;55.50
360;DHT22;168;48.872;9.226;2023-07-22T11:01:41;26.00;55.50
360;DHT22;168;48.872;9.226;2023-07-22T11:04:13;26.00;57.00
360;DHT22;168;48.872;9.226;2023-07-22T11:06:51;26.20;56.70
360;DHT22;168;48.872;9.226;2023-07-22T11:09:35;26.40;56.90
360;DHT22;168;48.872;9.226;2023-07-22T11:12:04;26.80;56.70
360;DHT22;168;48.872;9.226;2023-07-22T11:14:34;27.10;54.10
360;DHT22;168;48.872;9.226;2023-07-22T11:17:04;27.30;53.20
360;DHT22;168;48.872;9.226;2023-07-22T11:19:34;27.30;52.60
360;DHT22;168;48.872;9.226;2023-07-22T11:22:02;27.20;51.90
360;DHT22;168;48.872;9.226;2023-07-22T11:24:31;27.00;53.30
360;DHT22;168;48.872;9.226;2023-07-22T11:26:59;26.90;52.80
360;DHT22;168;48.872;9.226;2023-07-22T11:29:26;26.80;53.00
360;DHT22;168;48.872;9.226;2023-07-22T11:31:53;26.80;53.10
360;DHT22;168;48.872;9.226;2023-07-22T11:34:23;26.90;52.70
360;DHT22;168;48.872;9.226;2023-07-22T11:36:52;26.90;53.00
360;DHT22;168;48.872;9.226;2023-07-22T11:39:20;26.90;53.00
360;DHT22;168;48.872;9.226;2023-07-22T11:41:49;27.00;52.60
360;DHT22;168;48.872;9.226;2023-07-22T11:44:19;27.20;52.10
360;DHT22;168;48.872;9.226;2023-07-22T11:46:52;27.20;52.70
360;DHT22;168;48.872;9.226;2023-07-22T11:49:28;27.20;52.60
360;DHT22;168;48.872;9.226;2023-07-22T11:52:00;27.30;52.90
360;DHT22;168;48.872;9.226;2023-07-22T11:54:29;27.40;52.50
360;DHT22;168;48.872;9.226;2023-07-22T11:56:57;27.40;52.30
360;DHT22;168;48.872;9.226;2023-07-22T11:59:34;27.40;52.10
360;DHT22;168;48.872;9.226;2023-07-22T12:02:03;27.30;52.90
360;DHT22;168;48.872;9.226;2023-07-22T12:04:33;27.20;52.10
360;DHT22;168;48.872;9.226;2023-07-22T12:07:01;27.00;52.90
360;DHT22;168;48.872;9.226;2023-07-22T12:09:30;27.10;52.90
360;DHT22;168;48.872;9.226;2023-07-22T12:11:58;27.20;53.80
360;DHT22;168;48.872;9.226;2023-07-22T12:14:33;27.40;53.30
360;DHT22;168;48.872;9.226;2023-07-22T12:17:01;27.60;54.00
360;DHT22;168;48.872;9.226;2023-07-22T12:19:29;27.80;52.20
360;DHT22;168;48.872;9.226;2023-07-22T12:21:58;28.00;51.90
360;DHT22;168;48.872;9.226;2023-07-22T12:24:26;28.20;50.50
360;DHT22;168;48.872;9.226;2023-07-22T12:26:54;28.10;51.30
360;DHT22;168;48.872;9.226;2023-07-22T12:29:21;27.90;51.90
360;DHT22;168;48.872;9.226;2023-07-22T12:31:49;27.70;51.90
360;DHT22;168;48.872;9.226;2023-07-22T12:34:16;27.60;54.10
360;DHT22;168;48.872;9.226;2023-07-22T12:36:43;27.70;52.20
360;DHT22;168;48.872;9.226;2023-07-22T12:39:12;27.80;52.10
360;DHT22;168;48.872;9.226;2023-07-22T12:41:40;28.00;52.10
360;DHT22;168;48.872;9.226;2023-07-22T12:44:07;28.30;51.30
360;DHT22;168;48.872;9.226;2023-07-22T12:46:34;28.60;50.70
360;DHT22;168;48.872;9.226;2023-07-22T12:49:02;28.70;51.50
360;DHT22;168;48.872;9.226;2023-07-22T12:51:29;28.90;49.90
360;DHT22;168;48.872;9.226;2023-07-22T12:53:56;29.00;49.80
360;DHT22;168;48.872;9.226;2023-07-22T12:56:25;28.90;49.70
360;DHT22;168;48.872;9.226;2023-07-22T12:58:52;28.70;49.50
360;DHT22;168;48.872;9.226;2023-07-22T13:01:20;28.60;51.00
360;DHT22;168;48.872;9.226;2023-07-22T13:03:47;28.60;49.90
360;DHT22;168;48.872;9.226;2023-07-22T13:06:14;28.60;47.90
360;DHT22;168;48.872;9.226;2023-07-22T13:08:42;28.60;48.40
360;DHT22;168;48.872;9.226;2023-07-22T13:11:09;28.70;48.30
360;DHT22;168;48.872;9.226;2023-07-22T13:13:38;28.60;50.20
360;DHT22;168;48.872;9.226;2023-07-22T13:16:05;28.10;51.30
360;DHT22;168;48.872;9.226;2023-07-22T13:18:32;27.90;51.00
360;DHT22;168;48.872;9.226;2023-07-22T13:21:00;27.60;52.00
360;DHT22;168;48.872;9.226;2023-07-22T13:23:27;27.40;53.20
360;DHT22;168;48.872;9.226;2023-07-22T13:25:54;27.30;52.80
360;DHT22;168;48.872;9.226;2023-07-22T13:28:22;27.20;52.90
360;DHT22;168;48.872;9.226;2023-07-22T13:30:50;27.10;52.30
360;DHT22;168;48.872;9.226;2023-07-22T13:33:18;26.90;52.70
360;DHT22;168;48.872;9.226;2023-07-22T13:35:45;27.00;53.20
360;DHT22;168;48.872;9.226;2023-07-22T13:38:12;27.00;53.70
360;DHT22;168;48.872;9.226;2023-07-22T13:40:40;27.20;53.40
360;DHT22;168;48.872;9.226;2023-07-22T13:43:08;27.50;53.20
360;DHT22;168;48.872;9.226;2023-07-22T13:45:36;27.80;53.00
360;DHT22;168;48.872;9.226;2023-07-22T13:48:05;27.90;52.80
360;DHT22;168;48.872;9.226;2023-07-22T13:50:32;28.10;52.70
360;DHT22;168;48.872;9.226;2023-07-22T13:53:01;28.40;51.00
360;DHT22;168;48.872;9.226;2023-07-22T13:55:28;28.40;50.50
360;DHT22;168;48.872;9.226;2023-07-22T13:57:56;28.20;51.20
360;DHT22;168;48.872;9.226;2023-07-22T14:00:23;28.10;51.60
360;DHT22;168;48.872;9.226;2023-07-22T14:02:50;28.30;50.70
360;DHT22;168;48.872;9.226;2023-07-22T14:05:19;28.50;50.60
360;DHT22;168;48.872;9.226;2023-07-22T14:07:47;28.50;49.40
360;DHT22;168;48.872;9.226;2023-07-22T14:10:14;28.30;49.80
360;DHT22;168;48.872;9.226;2023-07-22T14:12:41;28.20;48.90
360;DHT22;168;48.872;9.226;2023-07-22T14:15:09;28.30;49.50
360;DHT22;168;48.872;9.226;2023-07-22T14:17:37;28.50;49.60
360;DHT22;168;48.872;9.226;2023-07-22T14:20:05;28.60;49.50
360;DHT22;168;48.872;9.226;2023-07-22T14:22:35;28.40;50.50
360;DHT22;168;48.872;9.226;2023-07-22T14:25:02;28.20;51.70
360;DHT22;168;48.872;9.226;2023-07-22T14:27:30;28.10;52.10
360;DHT22;168;48.872;9.226;2023-07-22T14:29:57;28.30;52.00
360;DHT22;168;48.872;9.226;2023-07-22T14:32:24;28.60;51.10
360;DHT22;168;48.872;9.226;2023-07-22T14:34:52;28.50;49.90
360;DHT22;168;48.872;9.226;2023-07-22T14:37:19;28.60;51.00
360;DHT22;168;48.872;9.226;2023-07-22T14:39:49;28.90;49.40
360;DHT22;168;48.872;9.226;2023-07-22T14:42:16;29.30;49.20
360;DHT22;168;48.872;9.226;2023-07-22T14:44:43;29.70;48.10
360;DHT22;168;48.872;9.226;2023-07-22T14:47:11;29.40;47.90
360;DHT22;168;48.872;9.226;2023-07-22T14:49:38;29.10;47.70
360;DHT22;168;48.872;9.226;2023-07-22T14:52:06;28.90;48.20
360;DHT22;168;48.872;9.226;2023-07-22T14:54:33;29.00;48.40
360;DHT22;168;48.872;9.226;2023-07-22T14:57:03;29.20;47.60
360;DHT22;168;48.872;9.226;2023-07-22T14:59:30;29.40;47.20
360;DHT22;168;48.872;9.226;2023-07-22T15:01:57;29.60;47.40
360;DHT22;168;48.872;9.226;2023-07-22T15:04:25;29.60;47.00
360;DHT22;168;48.872;9.226;2023-07-22T15:06:52;29.50;47.00
360;DHT22;168;48.872;9.226;2023-07-22T15:09:19;29.20;47.10
360;DHT22;168;48.872;9.226;2023-07-22T15:11:47;29.00;47.30
360;DHT22;168;48.872;9.226;2023-07-22T15:14:15;28.80;47.20
360;DHT22;168;48.872;9.226;2023-07-22T15:16:43;28.70;48.30
360;DHT22;168;48.872;9.226;2023-07-22T15:19:11;28.60;49.10
360;DHT22;168;48.872;9.226;2023-07-22T15:21:38;28.30;49.80
360;DHT22;168;48.872;9.226;2023-07-22T15:24:06;28.30;50.30
360;DHT22;168;48.872;9.226;2023-07-22T15:26:33;28.30;50.50
360;DHT22;168;48.872;9.226;2023-07-22T15:29:00;28.40;50.10
360;DHT22;168;48.872;9.226;2023-07-22T15:31:29;28.20;50.20
360;DHT22;168;48.872;9.226;2023-07-22T15:33:56;28.00;50.50
360;DHT22;168;48.872;9.226;2023-07-22T15:36:24;27.90;51.00
360;DHT22;168;48.872;9.226;2023-07-22T15:38:51;27.90;51.00
360;DHT22;168;48.872;9.226;2023-07-22T15:41:18;27.80;51.10
360;DHT22;168;48.872;9.226;2023-07-22T15:43:46;27.60;50.90
360;DHT22;168;48.872;9.226;2023-07-22T15:46:13;27.50;51.10
360;DHT22;168;48.872;9.226;2023-07-22T15:48:42;27.30;51.20
360;DHT22;168;48.872;9.226;2023-07-22T15:51:09;27.20;52.00
360;DHT22;168;48.872;9.226;2023-07-22T15:53:36;27.30;51.30
360;DHT22;168;48.872;9.226;2023-07-22T15:56:04;27.30;51.40
360;DHT22;168;48.872;9.226;2023-07-22T15:58:31;27.30;51.60
360;DHT22;168;48.872;9.226;2023-07-22T16:00:58;27.30;51.40
360;DHT22;168;48.872;9.226;2023-07-22T16:03:26;27.30;51.60
360;DHT22;168;48.872;9.226;2023-07-22T16:05:55;27.60;51.70
360;DHT22;168;48.872;9.226;2023-07-22T16:08:22;27.90;50.90
360;DHT22;168;48.872;9.226;2023-07-22T16:10:50;28.10;50.30
360;DHT22;168;48.872;9.226;2023-07-22T16:13:18;28.40;50.10
360;DHT22;168;48.872;9.226;2023-07-22T16:15:45;28.60;50.20
360;DHT22;168;48.872;9.226;2023-07-22T16:18:12;28.80;50.10
360;DHT22;168;48.872;9.226;2023-07-22T16:20:40;29.00;49.20
360;DHT22;168;48.872;9.226;2023-07-22T16:23:08;28.90;49.10
360;DHT22;168;48.872;9.226;2023-07-22T16:25:36;28.70;49.80
360;DHT22;168;48.872;9.226;2023-07-22T16:28:03;28.30;50.20
360;DHT22;168;48.872;9.226;2023-07-22T16:30:31;28.10;50.60
360;DHT22;168;48.872;9.226;2023-07-22T16:32:58;27.80;50.80
360;DHT22;168;48.872;9.226;2023-07-22T16:35:25;27.80;50.90
360;DHT22;168;48.872;9.226;2023-07-22T16:37:55;27.80;51.10
360;DHT22;168;48.872;9.226;2023-07-22T16:40:23;27.90;51.10